Amma, West Virginia
Current Conditions -  °F | °C
As of 6:54 PM on Friday 28 Nov 2014 (Local Time) from KCRW Reporting Station
Scattered Clouds Scattered Clouds  
Wind Chill: -2°   Ceiling: Unl
Heat Index: -2°   Visibility: 10mi
Dew Point: -7°   Wind: 3mph
Humidity: 69%   Direction: 120°ESE
Pressure: 30.24"   Gusts: NA
Location:  38.57°N, 81.27°W
Report Text: KCRW 282354Z 12003KT 10SM FEW110 SCT180 M02/M07 A3024 RMK AO2 SLP251 T10171067 10000 21017 58012
Loading
Personal Weather Stations






























Interactive Weather Map New forecast layout! Learn more

10-Day Weather Forecast

Advertisements
Track Severe Weather on mobile